createdAt,value
2023-03-04T00:02:14.458Z,37.97
2023-03-04T00:04:41.181Z,40.17
2023-03-04T00:07:07.979Z,40.55
2023-03-04T00:09:34.663Z,41.30
2023-03-04T00:12:01.413Z,41.47
2023-03-04T00:14:30.366Z,43.33
2023-03-04T00:16:57.192Z,46.40
2023-03-04T00:19:24.038Z,45.75
2023-03-04T00:21:50.717Z,45.40
2023-03-04T00:24:17.525Z,49.70
2023-03-04T00:26:44.318Z,49.85
2023-03-04T00:29:11.053Z,44.63
2023-03-04T00:31:37.783Z,47.92
2023-03-04T00:34:04.543Z,43.38
2023-03-04T00:36:31.243Z,43.72
2023-03-04T00:38:57.979Z,43.38
2023-03-04T00:41:24.653Z,47.83
2023-03-04T00:43:51.589Z,44.00
2023-03-04T00:46:18.317Z,42.33
2023-03-04T00:48:46.215Z,43.67
2023-03-04T00:51:12.949Z,45.85
2023-03-04T00:53:39.690Z,47.58
2023-03-04T00:56:06.922Z,47.25
2023-03-04T00:58:33.595Z,49.13
2023-03-04T01:01:00.322Z,47.95
2023-03-04T01:03:29.800Z,46.92
2023-03-04T01:08:24.321Z,44.97
2023-03-04T01:10:50.971Z,44.60
2023-03-04T01:13:17.676Z,45.60
2023-03-04T01:15:44.454Z,47.05
2023-03-04T01:18:11.416Z,48.30
2023-03-04T01:20:38.106Z,49.45
2023-03-04T01:23:06.116Z,43.83
2023-03-04T01:25:33.009Z,46.78
2023-03-04T01:27:59.706Z,44.97
2023-03-04T01:30:26.407Z,43.22
2023-03-04T01:32:53.066Z,40.50
2023-03-04T01:35:19.809Z,42.55
2023-03-04T01:37:46.555Z,40.88
2023-03-04T01:40:13.844Z,43.08
2023-03-04T01:42:41.165Z,37.45
2023-03-04T01:45:12.664Z,40.28
2023-03-04T01:47:39.372Z,39.95
2023-03-04T01:50:11.073Z,38.03
2023-03-04T01:52:38.971Z,44.88
2023-03-04T01:55:14.663Z,35.42
2023-03-04T01:57:41.436Z,38.78
2023-03-04T02:00:22.093Z,36.38
2023-03-04T02:02:50.738Z,36.22
2023-03-04T02:05:17.840Z,35.47
2023-03-04T02:07:44.624Z,34.05
2023-03-04T02:10:12.661Z,36.17
2023-03-04T02:12:39.865Z,36.95
2023-03-04T02:15:07.287Z,39.72
2023-03-04T02:17:34.004Z,39.15
2023-03-04T02:20:08.024Z,40.45
2023-03-04T02:22:38.330Z,42.35
2023-03-04T02:25:11.419Z,44.83
2023-03-04T02:27:38.078Z,39.22
2023-03-04T02:30:05.297Z,41.80
2023-03-04T02:32:32.147Z,38.30
2023-03-04T02:34:58.878Z,39.33
2023-03-04T02:37:25.552Z,42.08
2023-03-04T02:39:52.266Z,39.03
2023-03-04T02:42:19.044Z,35.78
2023-03-04T02:44:48.469Z,38.38
2023-03-04T02:49:42.384Z,37.70
2023-03-04T02:52:15.292Z,39.80
2023-03-04T02:54:42.093Z,44.50
2023-03-04T02:57:10.818Z,36.40
2023-03-04T02:59:39.327Z,37.22
2023-03-04T03:02:07.121Z,36.58
2023-03-04T03:04:34.123Z,36.00
2023-03-04T03:07:00.813Z,42.25
2023-03-04T03:09:27.502Z,39.92
2023-03-04T03:11:54.219Z,41.90
2023-03-04T03:14:21.382Z,40.42
2023-03-04T03:16:48.217Z,41.33
2023-03-04T03:19:14.860Z,40.15
2023-03-04T03:21:41.555Z,39.75
2023-03-04T03:24:08.762Z,46.97
2023-03-04T03:26:35.657Z,44.05
2023-03-04T03:29:02.409Z,41.80
2023-03-04T03:31:29.152Z,45.05
2023-03-04T03:33:55.850Z,42.40
2023-03-04T03:36:22.622Z,43.15
2023-03-04T03:38:49.266Z,43.22
2023-03-04T03:41:15.963Z,40.00
2023-03-04T03:43:42.691Z,39.63
2023-03-04T03:46:09.371Z,42.20
2023-03-04T03:48:36.089Z,41.88
2023-03-04T03:51:02.787Z,41.38
2023-03-04T03:53:29.500Z,38.67
2023-03-04T03:55:56.181Z,36.78
2023-03-04T03:58:23.269Z,43.70
2023-03-04T04:00:49.982Z,41.45
2023-03-04T04:03:17.188Z,42.83
2023-03-04T04:05:43.871Z,37.08
2023-03-04T04:08:14.768Z,42.40
2023-03-04T04:10:41.961Z,35.22
2023-03-04T04:13:08.864Z,39.63
2023-03-04T04:15:36.818Z,37.92
2023-03-04T04:18:03.542Z,37.78
2023-03-04T04:20:30.237Z,40.50
2023-03-04T04:22:56.936Z,41.60
2023-03-04T04:25:23.578Z,38.85
2023-03-04T04:27:50.278Z,40.08
2023-03-04T04:30:17.068Z,44.72
2023-03-04T04:32:43.826Z,43.10
2023-03-04T04:35:10.763Z,44.60
2023-03-04T04:37:37.419Z,41.97
2023-03-04T04:40:04.994Z,42.42
2023-03-04T04:42:31.697Z,43.88
2023-03-04T04:44:58.444Z,40.22
2023-03-04T04:47:25.222Z,42.88
2023-03-04T04:49:52.058Z,42.13
2023-03-04T04:52:18.793Z,41.83
2023-03-04T04:54:45.452Z,42.80
2023-03-04T04:57:12.184Z,41.97
2023-03-04T04:59:38.863Z,45.88
2023-03-04T05:02:05.545Z,42.25
2023-03-04T05:04:32.224Z,40.17
2023-03-04T05:06:59.016Z,42.53
2023-03-04T05:09:25.682Z,44.25
2023-03-04T05:11:52.678Z,47.42
2023-03-04T05:14:19.433Z,45.30
2023-03-04T05:16:46.170Z,44.10
2023-03-04T05:19:12.904Z,50.30
2023-03-04T05:21:39.667Z,47.42
2023-03-04T05:24:06.697Z,49.85
2023-03-04T05:26:33.478Z,44.00
2023-03-04T05:29:00.144Z,43.30
2023-03-04T05:31:27.000Z,43.60
2023-03-04T05:33:53.914Z,46.65
2023-03-04T05:36:20.680Z,42.70
2023-03-04T05:38:47.418Z,46.22
2023-03-04T05:41:14.139Z,47.55
2023-03-04T05:43:42.978Z,46.05
2023-03-04T05:46:15.297Z,48.78
2023-03-04T05:48:42.884Z,39.75
2023-03-04T05:51:09.588Z,41.88
2023-03-04T05:53:37.053Z,44.90
2023-03-04T05:56:08.760Z,40.45
2023-03-04T05:58:35.515Z,40.95
2023-03-04T06:01:02.283Z,39.70
2023-03-04T06:03:28.985Z,41.25
2023-03-04T06:05:55.804Z,39.33
2023-03-04T06:08:22.517Z,46.53
2023-03-04T06:10:52.422Z,44.03
2023-03-04T06:13:19.250Z,42.33
2023-03-04T06:15:46.021Z,47.38
2023-03-04T06:18:12.895Z,39.83
2023-03-04T06:20:39.646Z,45.53
2023-03-04T06:23:06.343Z,47.42
2023-03-04T06:25:33.070Z,41.35
2023-03-04T06:27:59.742Z,45.38
2023-03-04T06:30:26.540Z,43.40
2023-03-04T06:32:53.228Z,41.72
2023-03-04T06:35:19.979Z,39.67
2023-03-04T06:37:46.739Z,40.28
2023-03-04T06:40:13.803Z,41.78
2023-03-04T06:42:41.376Z,39.42
2023-03-04T06:45:08.924Z,44.70
2023-03-04T06:47:35.585Z,48.42
2023-03-04T06:50:03.723Z,50.28
2023-03-04T06:52:30.444Z,51.45
2023-03-04T06:54:57.174Z,50.75
2023-03-04T06:57:23.902Z,58.95
2023-03-04T06:59:50.600Z,58.75
2023-03-04T07:02:17.245Z,64.43
2023-03-04T07:04:43.923Z,57.53
2023-03-04T07:07:11.728Z,56.05
2023-03-04T07:09:38.444Z,54.13
2023-03-04T07:12:05.429Z,48.78
2023-03-04T07:14:32.089Z,51.45
2023-03-04T07:16:58.807Z,49.55
2023-03-04T07:19:25.715Z,53.00
2023-03-04T07:21:52.356Z,49.92
2023-03-04T07:24:19.121Z,48.15
2023-03-04T07:26:45.915Z,47.13
2023-03-04T07:29:13.176Z,44.70
2023-03-04T07:31:39.964Z,41.70
2023-03-04T07:34:10.092Z,42.38
2023-03-04T07:36:37.107Z,43.83
2023-03-04T07:39:04.807Z,49.28
2023-03-04T07:41:31.823Z,42.53
2023-03-04T07:43:59.071Z,37.50
2023-03-04T07:46:26.252Z,42.88
2023-03-04T07:48:53.150Z,41.15
2023-03-04T07:51:22.256Z,41.95
2023-03-04T07:53:51.562Z,39.33
2023-03-04T07:56:23.139Z,40.55
2023-03-04T07:58:53.586Z,37.53
2023-03-04T08:01:23.221Z,38.85
2023-03-04T08:03:49.963Z,38.85
2023-03-04T08:06:19.176Z,45.75
2023-03-04T08:08:46.357Z,40.38
2023-03-04T08:11:15.861Z,47.80
2023-03-04T08:13:42.985Z,46.30
2023-03-04T08:16:13.080Z,48.88
2023-03-04T08:18:40.643Z,46.83
2023-03-04T08:21:12.029Z,48.28
2023-03-04T08:23:39.941Z,44.00
2023-03-04T08:26:15.526Z,41.38
2023-03-04T08:28:42.306Z,46.22
2023-03-04T08:31:09.043Z,47.78
2023-03-04T08:33:35.834Z,49.22
2023-03-04T08:36:02.538Z,50.03
2023-03-04T08:38:29.274Z,44.70
2023-03-04T08:40:57.074Z,45.03
2023-03-04T08:43:25.412Z,45.20
2023-03-04T08:45:53.852Z,38.60
2023-03-04T08:48:21.392Z,39.25
2023-03-04T08:50:48.549Z,37.55
2023-03-04T08:53:16.226Z,38.13
2023-03-04T08:55:43.602Z,37.97
2023-03-04T08:58:11.229Z,40.58
2023-03-04T09:00:41.174Z,34.47
2023-03-04T09:03:07.805Z,35.53
2023-03-04T09:05:34.505Z,40.75
2023-03-04T09:08:01.228Z,41.80
2023-03-04T09:10:27.970Z,40.47
2023-03-04T09:12:54.794Z,40.45
2023-03-04T09:15:21.409Z,34.83
2023-03-04T09:17:48.171Z,39.45
2023-03-04T09:20:14.998Z,42.50
2023-03-04T09:22:42.101Z,36.70
2023-03-04T09:25:13.007Z,45.33
2023-03-04T09:27:40.145Z,45.22
2023-03-04T09:30:07.940Z,39.75
2023-03-04T09:32:34.714Z,41.17
2023-03-04T09:35:01.541Z,31.92
2023-03-04T09:37:28.175Z,33.35
2023-03-04T09:39:54.866Z,30.58
2023-03-04T09:42:33.363Z,36.42
2023-03-04T09:45:00.547Z,30.73
2023-03-04T09:47:27.334Z,40.92
2023-03-04T09:50:00.611Z,44.03
2023-03-04T09:53:04.349Z,33.33
2023-03-04T09:55:37.923Z,34.58
2023-03-04T09:58:26.629Z,36.17
2023-03-04T10:01:05.314Z,33.75
2023-03-04T10:03:43.359Z,34.10
2023-03-04T10:06:12.545Z,33.47
2023-03-04T10:09:00.763Z,33.78
2023-03-04T10:11:37.207Z,27.27
2023-03-04T10:14:16.809Z,29.20
2023-03-04T10:16:49.591Z,36.33
2023-03-04T10:19:54.110Z,25.60
2023-03-04T10:22:25.013Z,31.45
2023-03-04T10:24:54.861Z,23.42
2023-03-04T10:27:23.769Z,28.33
2023-03-04T10:29:50.827Z,29.10
2023-03-04T10:32:19.688Z,28.20
2023-03-04T10:34:47.027Z,25.63
2023-03-04T10:37:13.922Z,25.77
2023-03-04T10:39:42.983Z,29.80
2023-03-04T10:42:16.012Z,32.33
2023-03-04T10:44:53.019Z,33.22
2023-03-04T10:47:19.677Z,26.13
2023-03-04T10:49:54.788Z,29.33
2023-03-04T10:52:39.784Z,34.83
2023-03-04T10:55:15.848Z,28.02
2023-03-04T10:57:44.426Z,24.08
2023-03-04T11:00:23.623Z,23.45
2023-03-04T11:02:50.492Z,26.88
2023-03-04T11:05:20.144Z,26.02
2023-03-04T11:07:59.143Z,19.88
2023-03-04T11:10:30.493Z,19.98
2023-03-04T11:13:01.745Z,17.52
2023-03-04T11:15:31.375Z,20.20
2023-03-04T11:18:02.049Z,16.77
2023-03-04T11:20:33.952Z,19.63
2023-03-04T11:23:35.262Z,25.20
2023-03-04T11:26:05.246Z,20.25
2023-03-04T11:28:42.555Z,20.23
2023-03-04T11:31:40.707Z,15.05
2023-03-04T11:34:34.889Z,20.00
2023-03-04T11:37:19.505Z,15.02
2023-03-04T11:39:59.444Z,15.68
2023-03-04T11:42:45.748Z,18.85
2023-03-04T11:45:29.553Z,14.73
2023-03-04T11:48:13.507Z,18.63
2023-03-04T11:51:05.733Z,22.00
2023-03-04T11:54:09.798Z,20.08
2023-03-04T11:56:45.864Z,16.98
2023-03-04T11:59:44.759Z,18.83
2023-03-04T12:02:13.655Z,17.98
2023-03-04T12:04:42.809Z,18.23
2023-03-04T12:10:16.133Z,14.85
2023-03-04T12:13:01.642Z,15.00
2023-03-04T12:15:49.553Z,14.93
2023-03-04T12:18:47.409Z,20.10
2023-03-04T12:21:28.750Z,18.40
2023-03-04T12:24:27.551Z,21.33
2023-03-04T12:27:14.436Z,25.13
2023-03-04T12:29:57.573Z,21.17
2023-03-04T12:32:37.174Z,22.38
2023-03-04T12:35:22.395Z,15.13
2023-03-04T12:38:07.691Z,19.27
2023-03-04T12:40:56.664Z,26.65
2023-03-04T12:43:41.602Z,23.88
2023-03-04T12:46:30.324Z,19.90
2023-03-04T12:49:16.896Z,20.77
2023-03-04T12:51:46.380Z,20.65
2023-03-04T12:54:28.137Z,23.95
2023-03-04T12:56:58.136Z,26.98
2023-03-04T12:59:26.761Z,21.33
2023-03-04T13:02:31.139Z,26.42
2023-03-04T13:05:19.478Z,27.92
2023-03-04T13:08:13.825Z,29.73
2023-03-04T13:10:40.691Z,29.38
2023-03-04T13:13:34.481Z,28.20
2023-03-04T13:16:11.549Z,28.77
2023-03-04T13:18:39.602Z,25.27
2023-03-04T13:21:07.900Z,27.13
2023-03-04T13:23:34.937Z,23.48
2023-03-04T13:26:21.590Z,29.73
2023-03-04T13:28:53.508Z,32.72
2023-03-04T13:31:26.681Z,23.63
2023-03-04T13:33:57.498Z,23.55
2023-03-04T13:36:55.212Z,24.75
2023-03-04T13:39:27.693Z,34.15
2023-03-04T13:41:56.785Z,29.55
2023-03-04T13:44:44.463Z,43.45
2023-03-04T13:49:44.599Z,36.90
2023-03-04T13:52:40.384Z,32.63
2023-03-04T13:55:36.030Z,27.52
2023-03-04T13:58:15.109Z,28.88
2023-03-04T14:00:48.507Z,29.63
2023-03-04T14:03:21.737Z,34.13
2023-03-04T14:05:48.858Z,28.75
2023-03-04T14:08:20.377Z,31.35
2023-03-04T14:10:56.144Z,29.42
2023-03-04T14:13:22.946Z,26.63
2023-03-04T14:15:59.895Z,33.83
2023-03-04T14:18:28.166Z,31.77
2023-03-04T14:20:59.041Z,37.03
2023-03-04T14:23:34.504Z,35.10
2023-03-04T14:28:32.097Z,27.63
2023-03-04T14:30:58.933Z,33.80
2023-03-04T14:33:28.037Z,37.92
2023-03-04T14:35:58.237Z,37.83
2023-03-04T14:38:30.074Z,41.42
2023-03-04T14:41:08.869Z,37.92
2023-03-04T14:43:43.724Z,34.85
2023-03-04T14:46:13.820Z,34.65
2023-03-04T14:48:45.422Z,29.15
2023-03-04T14:51:38.710Z,31.45
2023-03-04T14:54:05.990Z,36.78
2023-03-04T14:56:35.398Z,35.47
2023-03-04T14:59:02.750Z,33.53
2023-03-04T15:01:34.847Z,33.47
2023-03-04T15:04:11.733Z,31.73
2023-03-04T15:06:47.832Z,31.30
2023-03-04T15:09:21.415Z,31.92
2023-03-04T15:11:55.315Z,34.17
2023-03-04T15:14:47.545Z,34.22
2023-03-04T15:17:39.870Z,36.20
2023-03-04T15:20:06.477Z,29.65
2023-03-04T15:22:34.296Z,29.00
2023-03-04T15:25:01.214Z,27.10
2023-03-04T15:27:29.302Z,30.25
2023-03-04T15:29:59.425Z,23.55
2023-03-04T15:32:29.763Z,26.98
2023-03-04T15:34:56.954Z,28.05
2023-03-04T15:37:26.817Z,26.67
2023-03-04T15:39:55.744Z,33.65
2023-03-04T15:42:23.088Z,32.00
2023-03-04T15:44:49.811Z,33.80
2023-03-04T15:47:16.670Z,35.03
2023-03-04T15:49:47.533Z,38.50
2023-03-04T15:52:20.136Z,30.17
2023-03-04T15:54:48.301Z,36.63
2023-03-04T15:57:24.487Z,40.78
2023-03-04T15:59:51.922Z,35.53
2023-03-04T16:02:27.704Z,36.22
2023-03-04T16:04:54.596Z,24.80
2023-03-04T16:07:24.894Z,34.05
2023-03-04T16:09:59.355Z,26.83
2023-03-04T16:12:27.754Z,24.77
2023-03-04T16:14:54.471Z,37.08
2023-03-04T16:17:21.163Z,38.13
2023-03-04T16:19:47.998Z,30.27
2023-03-04T16:22:24.209Z,32.88
2023-03-04T16:24:51.775Z,34.60
2023-03-04T16:27:20.041Z,34.72
2023-03-04T16:29:46.710Z,33.28
2023-03-04T16:32:13.388Z,35.67
2023-03-04T16:34:40.116Z,38.78
2023-03-04T16:37:15.006Z,42.08
2023-03-04T16:39:46.096Z,39.35
2023-03-04T16:42:19.214Z,38.22
2023-03-04T16:44:46.309Z,44.10
2023-03-04T16:47:12.927Z,53.28
2023-03-04T16:49:39.579Z,41.85
2023-03-04T16:52:07.063Z,27.45
2023-03-04T16:54:35.369Z,37.22
2023-03-04T16:57:02.497Z,37.88
2023-03-04T16:59:29.523Z,35.00
2023-03-04T17:01:56.525Z,45.80
2023-03-04T17:04:23.806Z,48.85
2023-03-04T17:06:50.629Z,49.38
2023-03-04T17:09:17.337Z,55.13
2023-03-04T17:11:44.165Z,44.78
2023-03-04T17:14:10.887Z,36.97
2023-03-04T17:16:37.586Z,37.88
2023-03-04T17:19:04.340Z,50.38
2023-03-04T17:21:31.014Z,49.42
2023-03-04T17:23:57.930Z,42.65
2023-03-04T17:26:25.233Z,53.17
2023-03-04T17:28:52.029Z,59.10
2023-03-04T17:31:20.124Z,55.53
2023-03-04T17:33:47.199Z,100.68
2023-03-04T17:36:15.476Z,49.17
2023-03-04T17:38:42.819Z,62.85
2023-03-04T17:41:15.940Z,52.08
2023-03-04T17:43:47.190Z,75.68
2023-03-04T17:46:15.489Z,66.15
2023-03-04T17:48:42.452Z,34.22
2023-03-04T17:51:09.918Z,30.38
2023-03-04T17:53:36.958Z,54.72
2023-03-04T17:56:06.059Z,54.13
2023-03-04T17:58:35.014Z,64.00
2023-03-04T18:01:23.262Z,55.15
2023-03-04T18:03:50.662Z,40.67
2023-03-04T18:06:18.399Z,44.88
2023-03-04T18:08:45.867Z,66.40
2023-03-04T18:11:12.835Z,51.10
2023-03-04T18:13:40.734Z,41.05
2023-03-04T18:16:09.037Z,42.15
2023-03-04T18:18:36.507Z,46.13
2023-03-04T18:21:04.352Z,62.90
2023-03-04T18:23:31.317Z,69.75
2023-03-04T18:25:58.342Z,58.65
2023-03-04T18:28:25.304Z,61.55
2023-03-04T18:30:53.137Z,57.53
2023-03-04T18:33:20.530Z,52.75
2023-03-04T18:35:47.615Z,41.55
2023-03-04T18:38:14.317Z,47.17
2023-03-04T18:40:42.047Z,39.67
2023-03-04T18:43:08.857Z,37.92
2023-03-04T18:45:35.721Z,45.75
2023-03-04T18:48:02.431Z,40.88
2023-03-04T18:50:29.190Z,60.92
2023-03-04T18:52:55.819Z,52.75
2023-03-04T18:55:23.211Z,42.25
2023-03-04T18:57:52.597Z,62.20
2023-03-04T19:02:53.066Z,100.00
2023-03-04T19:05:27.372Z,90.88
2023-03-04T19:07:54.371Z,97.20
2023-03-04T19:10:21.310Z,79.88
2023-03-04T19:12:48.071Z,84.22
2023-03-04T19:15:15.130Z,114.90
2023-03-04T19:17:43.759Z,105.97
2023-03-04T19:20:11.298Z,136.15
2023-03-04T19:22:38.031Z,129.23
2023-03-04T19:25:05.025Z,178.30
2023-03-04T19:27:32.125Z,151.90
2023-03-04T19:29:58.950Z,151.25
2023-03-04T19:32:26.328Z,179.68
2023-03-04T19:34:53.028Z,209.57
2023-03-04T19:37:19.842Z,167.50
2023-03-04T19:39:46.609Z,154.48
2023-03-04T19:42:13.766Z,155.57
2023-03-04T19:44:43.058Z,136.60
2023-03-04T19:47:11.093Z,139.55
2023-03-04T19:49:37.850Z,121.60
2023-03-04T19:52:04.946Z,129.48
2023-03-04T19:54:32.017Z,107.07
2023-03-04T19:56:58.792Z,122.90
2023-03-04T19:59:25.642Z,94.90
2023-03-04T20:01:52.560Z,85.13
2023-03-04T20:04:22.576Z,85.25
2023-03-04T20:06:50.505Z,93.35
2023-03-04T20:09:18.893Z,89.63
2023-03-04T20:11:57.211Z,71.10
2023-03-04T20:14:24.811Z,70.90
2023-03-04T20:16:51.586Z,76.85
2023-03-04T20:19:18.243Z,83.10
2023-03-04T20:21:44.945Z,89.78
2023-03-04T20:24:11.810Z,80.90
2023-03-04T20:26:39.622Z,93.85
2023-03-04T20:29:06.756Z,78.75
2023-03-04T20:31:38.309Z,76.40
2023-03-04T20:34:06.995Z,76.25
2023-03-04T20:36:34.604Z,83.18
2023-03-04T20:39:02.867Z,80.72
2023-03-04T20:41:30.475Z,81.50
2023-03-04T20:43:57.259Z,79.95
2023-03-04T20:46:30.814Z,62.60
2023-03-04T20:49:00.192Z,52.42
2023-03-04T20:53:55.433Z,56.88
2023-03-04T20:56:23.274Z,71.47
2023-03-04T20:58:50.691Z,57.72
2023-03-04T21:01:17.623Z,63.75
2023-03-04T21:03:44.551Z,72.25
2023-03-04T21:06:13.262Z,61.03
2023-03-04T21:08:41.069Z,60.83
2023-03-04T21:11:10.932Z,69.85
2023-03-04T21:13:37.857Z,56.33
2023-03-04T21:16:05.128Z,54.20
2023-03-04T21:18:31.926Z,60.00
2023-03-04T21:20:58.632Z,67.90
2023-03-04T21:23:25.307Z,51.65
2023-03-04T21:25:51.986Z,48.38
2023-03-04T21:28:20.348Z,53.28
2023-03-04T21:30:47.087Z,62.28
2023-03-04T21:33:18.211Z,107.65
2023-03-04T21:35:47.579Z,144.25
2023-03-04T21:40:42.851Z,71.85
2023-03-04T21:43:09.883Z,72.95
2023-03-04T21:45:37.818Z,74.20
2023-03-04T21:48:05.168Z,76.32
2023-03-04T21:50:31.844Z,60.60
2023-03-04T21:52:58.551Z,55.15
2023-03-04T21:55:25.232Z,62.47
2023-03-04T21:57:51.897Z,59.15
2023-03-04T22:00:19.121Z,63.30
2023-03-04T22:02:45.801Z,63.08
2023-03-04T22:05:12.462Z,64.00
2023-03-04T22:07:39.165Z,64.32
2023-03-04T22:10:06.789Z,52.83
2023-03-04T22:12:33.485Z,64.15
2023-03-04T22:15:00.492Z,61.42
2023-03-04T22:17:27.259Z,53.75
2023-03-04T22:19:55.183Z,58.20
2023-03-04T22:22:21.901Z,58.38
2023-03-04T22:24:48.588Z,69.00
2023-03-04T22:27:15.612Z,65.80
2023-03-04T22:29:42.327Z,65.00
2023-03-04T22:32:09.158Z,60.97
2023-03-04T22:34:35.943Z,67.28
2023-03-04T22:37:02.612Z,58.65
2023-03-04T22:39:29.277Z,63.88
2023-03-04T22:41:55.951Z,90.53
2023-03-04T22:44:22.636Z,94.80
2023-03-04T22:46:49.316Z,100.35
2023-03-04T22:49:16.088Z,94.45
2023-03-04T22:51:44.047Z,83.57
2023-03-04T22:54:15.062Z,93.15
2023-03-04T22:56:41.793Z,73.78
2023-03-04T22:59:08.512Z,72.40
2023-03-04T23:01:35.460Z,69.25
2023-03-04T23:04:02.329Z,67.07
2023-03-04T23:06:30.459Z,66.32
2023-03-04T23:08:58.762Z,56.65
2023-03-04T23:11:28.637Z,62.83
2023-03-04T23:13:56.668Z,60.20
2023-03-04T23:16:24.283Z,71.20
2023-03-04T23:18:51.365Z,67.38
2023-03-04T23:21:21.360Z,61.25
2023-03-04T23:23:48.677Z,81.25
2023-03-04T23:26:26.915Z,75.10
2023-03-04T23:28:55.788Z,95.45
2023-03-04T23:31:23.019Z,79.07
2023-03-04T23:33:49.767Z,81.18
2023-03-04T23:36:18.346Z,71.68
2023-03-04T23:38:46.615Z,74.57
2023-03-04T23:41:18.486Z,70.82
2023-03-04T23:43:45.824Z,68.25
2023-03-04T23:46:13.003Z,63.67
2023-03-04T23:48:43.230Z,68.93
2023-03-04T23:51:10.204Z,60.00
2023-03-04T23:53:39.166Z,59.28
2023-03-04T23:56:10.115Z,54.50
2023-03-04T23:58:37.094Z,57.08
